createdAt,value
2019-05-22T00:00:41.012Z,12.80
2019-05-22T00:03:14.941Z,12.80
2019-05-22T00:05:45.588Z,12.80
2019-05-22T00:08:15.883Z,12.80
2019-05-22T00:10:46.543Z,12.80
2019-05-22T00:13:18.360Z,12.80
2019-05-22T00:15:49.415Z,12.80
2019-05-22T00:18:19.635Z,12.80
2019-05-22T00:20:49.209Z,12.80
2019-05-22T00:23:19.527Z,12.80
2019-05-22T00:25:49.160Z,12.80
2019-05-22T00:28:19.414Z,12.80
2019-05-22T00:30:49.272Z,12.80
2019-05-22T00:33:19.463Z,12.80
2019-05-22T00:35:49.896Z,12.90
2019-05-22T00:38:20.658Z,12.80
2019-05-22T00:40:53.125Z,12.80
2019-05-22T00:43:30.715Z,12.80
2019-05-22T00:46:02.917Z,12.80
2019-05-22T00:48:34.203Z,12.80
2019-05-22T00:51:07.864Z,12.80
2019-05-22T00:53:54.881Z,12.80
2019-05-22T00:56:27.962Z,12.80
2019-05-22T00:58:59.783Z,12.80
2019-05-22T01:01:34.213Z,12.80
2019-05-22T01:04:05.263Z,12.80
2019-05-22T01:06:36.227Z,12.80
2019-05-22T01:09:09.597Z,12.80
2019-05-22T01:11:39.614Z,12.90
2019-05-22T01:14:09.565Z,12.90
2019-05-22T01:16:39.574Z,12.90
2019-05-22T01:19:10.920Z,12.90
2019-05-22T01:22:01.934Z,12.90
2019-05-22T01:24:32.978Z,12.90
2019-05-22T01:27:02.532Z,12.90
2019-05-22T01:29:32.947Z,12.90
2019-05-22T01:32:15.964Z,12.90
2019-05-22T01:34:45.778Z,12.90
2019-05-22T01:37:15.965Z,12.90
2019-05-22T01:40:04.885Z,12.90
2019-05-22T01:42:37.908Z,12.90
2019-05-22T01:45:11.498Z,12.90
2019-05-22T01:47:49.131Z,12.90
2019-05-22T01:50:41.270Z,12.90
2019-05-22T01:53:12.170Z,12.90
2019-05-22T01:55:43.571Z,12.80
2019-05-22T01:58:12.804Z,12.90
2019-05-22T02:00:42.198Z,12.90
2019-05-22T02:03:14.197Z,12.90
2019-05-22T02:05:43.519Z,12.90
2019-05-22T02:08:14.233Z,12.90
2019-05-22T02:10:46.026Z,12.90
2019-05-22T02:13:19.844Z,12.90
2019-05-22T02:15:49.194Z,12.90
2019-05-22T02:18:19.357Z,12.90
2019-05-22T02:20:50.053Z,12.90
2019-05-22T02:23:19.937Z,12.90
2019-05-22T02:25:50.420Z,12.90
2019-05-22T02:28:21.845Z,12.90
2019-05-22T02:30:51.849Z,12.90
2019-05-22T02:33:22.338Z,12.90
2019-05-22T02:35:51.597Z,12.90
2019-05-22T02:38:22.316Z,12.90
2019-05-22T02:40:55.254Z,12.90
2019-05-22T02:43:26.267Z,12.90
2019-05-22T02:45:56.239Z,12.90
2019-05-22T02:48:27.833Z,12.90
2019-05-22T02:50:57.122Z,12.90
2019-05-22T02:53:27.115Z,12.90
2019-05-22T02:55:56.150Z,12.90
2019-05-22T02:58:27.253Z,12.90
2019-05-22T03:01:00.012Z,12.90
2019-05-22T03:03:30.620Z,12.90
2019-05-22T03:06:01.124Z,12.90
2019-05-22T03:08:53.438Z,12.90
2019-05-22T03:11:23.611Z,12.90
2019-05-22T03:14:09.376Z,12.90
2019-05-22T03:16:54.299Z,12.90
2019-05-22T03:19:33.688Z,12.90
2019-05-22T03:22:07.574Z,12.90
2019-05-22T03:24:37.867Z,12.90
2019-05-22T03:27:07.371Z,12.90
2019-05-22T03:29:52.549Z,12.90
2019-05-22T03:32:23.353Z,12.90
2019-05-22T03:34:54.505Z,12.90
2019-05-22T03:37:25.009Z,12.90
2019-05-22T03:39:54.207Z,12.90
2019-05-22T03:42:23.443Z,12.90
2019-05-22T03:44:53.961Z,12.90
2019-05-22T03:47:25.321Z,12.90
2019-05-22T03:49:55.306Z,12.90
2019-05-22T03:52:25.649Z,13.00
2019-05-22T03:54:55.804Z,13.00
2019-05-22T03:57:25.579Z,12.90
2019-05-22T03:59:56.870Z,12.90
2019-05-22T04:02:27.034Z,12.90
2019-05-22T04:04:56.802Z,12.90
2019-05-22T04:07:26.585Z,12.90
2019-05-22T04:09:57.198Z,13.00
2019-05-22T04:12:26.868Z,13.00
2019-05-22T04:14:57.063Z,13.00
2019-05-22T04:17:26.695Z,13.00
2019-05-22T04:19:56.263Z,13.00
2019-05-22T04:22:25.474Z,13.00
2019-05-22T04:24:55.277Z,13.00
2019-05-22T04:27:24.504Z,13.10
2019-05-22T04:29:54.029Z,13.10
2019-05-22T04:32:27.456Z,13.10
2019-05-22T04:34:57.644Z,13.10
2019-05-22T04:37:27.545Z,13.10
2019-05-22T04:40:15.945Z,13.10
2019-05-22T04:42:45.155Z,13.10
2019-05-22T04:45:15.651Z,13.10
2019-05-22T04:48:02.782Z,13.10
2019-05-22T04:50:32.440Z,13.10
2019-05-22T04:53:01.871Z,13.10
2019-05-22T04:55:32.870Z,13.20
2019-05-22T04:58:06.939Z,13.20
2019-05-22T05:00:36.867Z,13.20
2019-05-22T05:03:06.869Z,13.20
2019-05-22T05:05:50.311Z,13.20
2019-05-22T05:08:19.450Z,13.20
2019-05-22T05:10:50.608Z,13.20
2019-05-22T05:13:20.207Z,13.20
2019-05-22T05:15:49.184Z,13.20
2019-05-22T05:18:18.560Z,13.10
2019-05-22T05:20:47.517Z,13.20
2019-05-22T05:23:16.768Z,13.20
2019-05-22T05:25:45.977Z,13.10
2019-05-22T05:28:15.979Z,13.10
2019-05-22T05:30:44.939Z,13.10
2019-05-22T05:33:14.465Z,13.10
2019-05-22T05:35:44.313Z,13.10
2019-05-22T05:38:13.988Z,13.10
2019-05-22T05:40:43.557Z,13.20
2019-05-22T05:43:15.045Z,13.20
2019-05-22T05:45:46.932Z,13.20
2019-05-22T05:48:19.318Z,13.10
2019-05-22T05:51:06.273Z,13.10
2019-05-22T05:53:39.967Z,13.10
2019-05-22T05:56:16.681Z,13.10
2019-05-22T05:58:46.472Z,13.10
2019-05-22T06:01:22.125Z,13.10
2019-05-22T06:03:51.628Z,13.10
2019-05-22T06:06:28.247Z,13.10
2019-05-22T06:09:02.305Z,13.10
2019-05-22T06:11:34.498Z,13.10
2019-05-22T06:14:06.375Z,13.20
2019-05-22T06:16:51.065Z,13.20
2019-05-22T06:19:20.783Z,13.30
2019-05-22T06:21:50.935Z,13.30
2019-05-22T06:24:37.194Z,13.30
2019-05-22T06:27:15.901Z,13.40
2019-05-22T06:29:57.481Z,13.50
2019-05-22T06:32:52.621Z,13.50
2019-05-22T06:35:22.299Z,13.50
2019-05-22T06:38:00.791Z,13.50
2019-05-22T06:40:30.630Z,13.50
2019-05-22T06:43:24.240Z,13.50
2019-05-22T06:45:54.265Z,13.60
2019-05-22T06:48:23.490Z,13.50
2019-05-22T06:50:53.166Z,13.60
2019-05-22T06:53:23.082Z,13.60
2019-05-22T06:55:52.336Z,13.60
2019-05-22T06:58:21.792Z,13.70
2019-05-22T07:00:51.029Z,13.80
2019-05-22T07:03:20.650Z,13.90
2019-05-22T07:05:50.309Z,14.00
2019-05-22T07:08:20.203Z,14.00
2019-05-22T07:10:49.193Z,14.10
2019-05-22T07:13:19.836Z,14.20
2019-05-22T07:15:50.275Z,14.20
2019-05-22T07:18:20.623Z,14.30
2019-05-22T07:20:50.214Z,14.30
2019-05-22T07:23:21.448Z,14.30
2019-05-22T07:25:52.374Z,14.40
2019-05-22T07:28:23.206Z,14.50
2019-05-22T07:30:52.666Z,14.60
2019-05-22T07:33:23.817Z,14.60
2019-05-22T07:36:12.057Z,14.60
2019-05-22T07:38:24.625Z,14.60
2019-05-22T07:40:54.191Z,14.60
2019-05-22T07:43:23.234Z,14.70
2019-05-22T07:45:53.627Z,14.60
2019-05-22T07:48:25.336Z,14.70
2019-05-22T07:50:55.435Z,14.80
2019-05-22T07:53:26.328Z,14.80
2019-05-22T07:55:57.623Z,14.80
2019-05-22T07:58:29.680Z,15.00
2019-05-22T08:01:01.591Z,15.00
2019-05-22T08:03:33.067Z,15.10
2019-05-22T08:06:02.757Z,15.10
2019-05-22T08:08:33.369Z,15.20
2019-05-22T08:11:03.011Z,15.20
2019-05-22T08:13:33.109Z,15.20
2019-05-22T08:16:03.791Z,15.20
2019-05-22T08:18:34.986Z,15.10
2019-05-22T08:21:04.578Z,15.20
2019-05-22T08:23:34.407Z,15.20
2019-05-22T08:26:04.661Z,15.20
2019-05-22T08:28:33.961Z,15.20
2019-05-22T08:31:05.384Z,15.10
2019-05-22T08:33:36.485Z,15.20
2019-05-22T08:36:06.757Z,15.10
2019-05-22T08:38:36.736Z,15.20
2019-05-22T08:41:10.909Z,15.20
2019-05-22T08:44:11.282Z,15.30
2019-05-22T08:46:12.986Z,15.30
2019-05-22T08:48:47.759Z,15.40
2019-05-22T08:51:15.894Z,15.50
2019-05-22T08:53:48.149Z,15.50
2019-05-22T08:56:18.176Z,15.40
2019-05-22T08:58:48.532Z,15.40
2019-05-22T09:01:17.543Z,15.50
2019-05-22T09:03:46.920Z,15.60
2019-05-22T09:06:16.495Z,15.70
2019-05-22T09:08:46.062Z,15.80
2019-05-22T09:11:15.498Z,15.80
2019-05-22T09:13:44.545Z,15.70
2019-05-22T09:16:14.548Z,15.80
2019-05-22T09:18:44.009Z,15.80
2019-05-22T09:21:13.338Z,15.80
2019-05-22T09:23:42.924Z,15.80
2019-05-22T09:26:12.846Z,15.80
2019-05-22T09:28:42.124Z,15.90
2019-05-22T09:31:11.229Z,15.90
2019-05-22T09:33:40.510Z,16.10
2019-05-22T09:36:10.403Z,16.20
2019-05-22T09:38:39.490Z,16.30
2019-05-22T09:41:09.050Z,16.30
2019-05-22T09:43:39.004Z,16.30
2019-05-22T09:46:09.294Z,16.30
2019-05-22T09:48:38.785Z,16.30
2019-05-22T09:51:07.837Z,16.20
2019-05-22T09:53:38.398Z,16.10
2019-05-22T09:56:07.712Z,16.10
2019-05-22T09:58:36.907Z,16.00
2019-05-22T10:01:11.552Z,16.00
2019-05-22T10:03:38.936Z,16.10
2019-05-22T10:06:08.306Z,16.20
2019-05-22T10:08:37.975Z,16.10
2019-05-22T10:11:07.482Z,16.20
2019-05-22T10:13:37.095Z,16.40
2019-05-22T10:16:06.682Z,16.20
2019-05-22T10:18:35.828Z,16.40
2019-05-22T10:21:05.473Z,16.50
2019-05-22T10:23:35.345Z,16.50
2019-05-22T10:26:05.352Z,16.60
2019-05-22T10:28:35.225Z,16.60
2019-05-22T10:31:05.307Z,16.60
2019-05-22T10:33:34.685Z,16.60
2019-05-22T10:36:04.064Z,16.80
2019-05-22T10:38:33.492Z,16.90
2019-05-22T10:41:02.444Z,17.00
2019-05-22T10:43:31.751Z,17.20
2019-05-22T10:46:01.071Z,17.20
2019-05-22T10:48:30.206Z,17.20
2019-05-22T10:50:59.866Z,17.20
2019-05-22T10:53:33.619Z,17.20
2019-05-22T10:56:00.368Z,17.10
2019-05-22T10:58:30.403Z,17.00
2019-05-22T11:00:59.763Z,16.90
2019-05-22T11:03:29.662Z,16.70
2019-05-22T11:06:06.984Z,16.90
2019-05-22T11:08:34.219Z,17.00
2019-05-22T11:11:01.460Z,17.20
2019-05-22T11:13:34.248Z,17.30
2019-05-22T11:16:02.472Z,17.40
2019-05-22T11:18:31.918Z,17.60
2019-05-22T11:21:01.726Z,17.70
2019-05-22T11:23:31.021Z,17.90
2019-05-22T11:26:00.383Z,18.10
2019-05-22T11:28:31.367Z,18.20
2019-05-22T11:31:00.786Z,18.30
2019-05-22T11:33:34.038Z,18.20
2019-05-22T11:36:01.620Z,18.20
2019-05-22T11:38:32.263Z,18.10
2019-05-22T11:41:01.740Z,18.10
2019-05-22T11:43:30.991Z,18.20
2019-05-22T11:46:00.280Z,18.30
2019-05-22T11:48:30.024Z,18.40
2019-05-22T11:51:01.064Z,18.50
2019-05-22T11:53:30.781Z,18.60
2019-05-22T11:55:59.976Z,18.80
2019-05-22T11:58:29.367Z,18.90
2019-05-22T12:00:58.688Z,18.90
2019-05-22T12:03:30.879Z,18.90
2019-05-22T12:06:00.761Z,19.00
2019-05-22T12:08:30.240Z,19.00
2019-05-22T12:10:59.805Z,19.00
2019-05-22T12:13:30.216Z,19.00
2019-05-22T12:16:00.586Z,19.00
2019-05-22T12:18:30.103Z,19.00
2019-05-22T12:20:59.260Z,18.90
2019-05-22T12:23:29.410Z,18.90
2019-05-22T12:25:58.704Z,18.70
2019-05-22T12:28:28.237Z,18.60
2019-05-22T12:30:58.212Z,18.50
2019-05-22T12:33:27.323Z,18.30
2019-05-22T12:35:56.904Z,18.20
2019-05-22T12:38:27.120Z,18.10
2019-05-22T12:40:57.617Z,18.10
2019-05-22T12:43:30.486Z,18.10
2019-05-22T12:46:00.568Z,18.20
2019-05-22T12:48:30.403Z,18.20
2019-05-22T12:51:00.230Z,18.30
2019-05-22T12:53:31.215Z,18.30
2019-05-22T12:56:00.186Z,18.40
2019-05-22T12:58:29.483Z,18.40
2019-05-22T13:00:59.689Z,18.50
2019-05-22T13:03:30.134Z,18.50
2019-05-22T13:05:59.760Z,18.60
2019-05-22T13:08:29.751Z,18.60
2019-05-22T13:10:59.516Z,18.70
2019-05-22T13:13:28.732Z,18.70
2019-05-22T13:16:00.478Z,18.60
2019-05-22T13:18:30.226Z,18.60
2019-05-22T13:21:00.486Z,18.60
2019-05-22T13:23:34.196Z,18.50
2019-05-22T13:26:05.328Z,18.50
2019-05-22T13:28:37.114Z,18.50
2019-05-22T13:31:07.370Z,18.50
2019-05-22T13:33:38.305Z,18.50
2019-05-22T13:36:09.650Z,18.40
2019-05-22T13:38:39.495Z,18.40
2019-05-22T13:41:09.538Z,18.30
2019-05-22T13:43:38.857Z,18.20
2019-05-22T13:46:08.431Z,18.10
2019-05-22T13:48:38.104Z,18.00
2019-05-22T13:51:08.845Z,17.90
2019-05-22T13:53:38.424Z,17.80
2019-05-22T13:56:09.332Z,17.80
2019-05-22T13:58:38.994Z,17.70
2019-05-22T14:01:08.681Z,17.60
2019-05-22T14:03:38.290Z,17.60
2019-05-22T14:06:07.728Z,17.50
2019-05-22T14:08:37.117Z,17.50
2019-05-22T14:11:07.119Z,17.60
2019-05-22T14:13:36.846Z,17.60
2019-05-22T14:16:06.249Z,17.70
2019-05-22T14:18:35.333Z,17.80
2019-05-22T14:21:04.930Z,17.80
2019-05-22T14:23:34.170Z,17.90
2019-05-22T14:26:03.756Z,17.90
2019-05-22T14:28:34.122Z,17.90
2019-05-22T14:31:03.701Z,17.90
2019-05-22T14:33:32.941Z,17.90
2019-05-22T14:36:03.031Z,17.90
2019-05-22T14:38:32.989Z,17.90
2019-05-22T14:41:02.635Z,17.80
2019-05-22T14:43:31.728Z,17.80
2019-05-22T14:46:01.366Z,17.70
2019-05-22T14:48:30.636Z,17.60
2019-05-22T14:51:00.600Z,17.60
2019-05-22T14:53:30.856Z,17.60
2019-05-22T14:56:00.775Z,17.50
2019-05-22T14:58:30.855Z,17.50
2019-05-22T15:01:00.465Z,17.50
2019-05-22T15:03:30.037Z,17.60
2019-05-22T15:05:59.797Z,17.70
2019-05-22T15:08:28.818Z,17.70
2019-05-22T15:10:58.318Z,17.80
2019-05-22T15:13:27.416Z,17.80
2019-05-22T15:15:56.618Z,17.80
2019-05-22T15:18:25.785Z,17.80
2019-05-22T15:21:06.706Z,17.80
2019-05-22T15:23:36.109Z,17.80
2019-05-22T15:26:05.238Z,17.80
2019-05-22T15:28:35.091Z,17.70
2019-05-22T15:31:04.859Z,17.70
2019-05-22T15:33:34.811Z,17.60
2019-05-22T15:36:06.922Z,17.60
2019-05-22T15:38:39.600Z,17.60
2019-05-22T15:41:11.586Z,17.60
2019-05-22T15:43:43.251Z,17.60
2019-05-22T15:49:05.694Z,17.70
2019-05-22T15:51:35.475Z,17.70
2019-05-22T15:54:06.151Z,17.70
2019-05-22T15:56:37.989Z,17.70
2019-05-22T15:59:10.242Z,17.60
2019-05-22T16:01:41.387Z,17.60
2019-05-22T16:04:12.547Z,17.50
2019-05-22T16:06:42.048Z,17.50
2019-05-22T16:09:14.088Z,17.40
2019-05-22T16:11:45.407Z,17.40
2019-05-22T16:14:16.001Z,17.40
2019-05-22T16:16:48.013Z,17.40
2019-05-22T16:19:19.202Z,17.50
2019-05-22T16:21:48.517Z,17.60
2019-05-22T16:24:17.943Z,17.70
2019-05-22T16:26:48.392Z,17.80
2019-05-22T16:29:18.118Z,18.00
2019-05-22T16:31:48.504Z,18.10
2019-05-22T16:34:18.466Z,18.20
2019-05-22T16:36:47.957Z,18.30
2019-05-22T16:39:17.720Z,18.30
2019-05-22T16:41:47.494Z,18.30
2019-05-22T16:44:17.696Z,18.30
2019-05-22T16:46:48.807Z,18.40
2019-05-22T16:49:18.081Z,18.50
2019-05-22T16:51:53.817Z,18.50
2019-05-22T16:54:23.444Z,18.40
2019-05-22T16:56:53.293Z,18.30
2019-05-22T16:59:22.859Z,18.30
2019-05-22T17:01:59.182Z,18.20
2019-05-22T17:04:23.793Z,18.10
2019-05-22T17:06:53.330Z,18.00
2019-05-22T17:09:23.218Z,17.90
2019-05-22T17:11:52.885Z,17.90
2019-05-22T17:14:23.558Z,17.80
2019-05-22T17:16:53.105Z,17.80
2019-05-22T17:19:27.273Z,17.70
2019-05-22T17:21:54.726Z,17.80
2019-05-22T17:24:23.891Z,17.80
2019-05-22T17:26:53.647Z,17.80
2019-05-22T17:29:23.666Z,17.90
2019-05-22T17:31:53.406Z,17.90
2019-05-22T17:34:31.778Z,18.00
2019-05-22T17:37:04.593Z,17.90
2019-05-22T17:39:36.727Z,17.90
2019-05-22T17:42:08.989Z,17.90
2019-05-22T17:44:40.683Z,17.80
2019-05-22T17:47:11.793Z,17.70
2019-05-22T17:49:41.864Z,17.60
2019-05-22T17:52:12.625Z,17.50
2019-05-22T17:54:42.160Z,17.40
2019-05-22T17:57:11.553Z,17.30
2019-05-22T17:59:41.065Z,17.20
2019-05-22T18:02:11.746Z,17.10
2019-05-22T18:04:40.805Z,17.10
2019-05-22T18:07:10.229Z,17.00
2019-05-22T18:09:39.953Z,16.90
2019-05-22T18:12:09.336Z,16.80
2019-05-22T18:14:38.821Z,16.80
2019-05-22T18:17:08.994Z,16.70
2019-05-22T18:19:38.237Z,16.70
2019-05-22T18:22:09.305Z,16.60
2019-05-22T18:24:38.320Z,16.60
2019-05-22T18:27:07.513Z,16.50
2019-05-22T18:29:36.488Z,16.50
2019-05-22T18:32:06.705Z,16.50
2019-05-22T18:34:35.716Z,16.40
2019-05-22T18:37:05.206Z,16.40
2019-05-22T18:39:34.885Z,16.40
2019-05-22T18:42:04.291Z,16.30
2019-05-22T18:44:33.416Z,16.30
2019-05-22T18:47:03.178Z,16.30
2019-05-22T18:49:32.232Z,16.20
2019-05-22T18:52:01.711Z,16.20
2019-05-22T18:54:30.938Z,16.20
2019-05-22T18:57:00.167Z,16.20
2019-05-22T18:59:29.447Z,16.10
2019-05-22T19:01:58.568Z,16.10
2019-05-22T19:04:27.781Z,16.10
2019-05-22T19:06:57.695Z,16.10
2019-05-22T19:09:27.310Z,16.00
2019-05-22T19:11:56.582Z,16.00
2019-05-22T19:14:25.979Z,16.00
2019-05-22T19:16:55.319Z,16.00
2019-05-22T19:19:28.207Z,15.90
2019-05-22T19:21:56.043Z,15.90
2019-05-22T19:24:25.841Z,15.80
2019-05-22T19:26:55.170Z,15.80
2019-05-22T19:29:24.301Z,15.90
2019-05-22T19:31:53.494Z,15.80
2019-05-22T19:34:22.805Z,15.80
2019-05-22T19:36:51.985Z,15.80
2019-05-22T19:39:21.303Z,15.80
2019-05-22T19:42:02.038Z,15.70
2019-05-22T19:44:22.326Z,15.70
2019-05-22T19:46:51.854Z,15.70
2019-05-22T19:49:21.593Z,15.60
2019-05-22T19:51:51.274Z,15.60
2019-05-22T19:54:20.453Z,15.60
2019-05-22T19:56:49.421Z,15.50
2019-05-22T19:59:19.046Z,15.50
2019-05-22T20:01:48.140Z,15.50
2019-05-22T20:04:17.916Z,15.40
2019-05-22T20:06:47.235Z,15.40
2019-05-22T20:09:17.376Z,15.30
2019-05-22T20:11:46.521Z,15.20
2019-05-22T20:14:16.528Z,15.20
2019-05-22T20:16:45.613Z,15.20
2019-05-22T20:19:15.339Z,15.20
2019-05-22T20:21:45.279Z,15.20
2019-05-22T20:24:14.755Z,15.10
2019-05-22T20:26:44.052Z,15.10
2019-05-22T20:29:15.236Z,15.00
2019-05-22T20:31:44.576Z,15.00
2019-05-22T20:34:14.428Z,14.90
2019-05-22T20:36:43.960Z,14.90
2019-05-22T20:39:15.031Z,14.90
2019-05-22T20:41:44.522Z,14.80
2019-05-22T20:44:15.495Z,14.80
2019-05-22T20:46:46.195Z,14.70
2019-05-22T20:49:15.844Z,14.70
2019-05-22T20:51:45.708Z,14.70
2019-05-22T20:54:15.382Z,14.60
2019-05-22T20:56:47.937Z,14.60
2019-05-22T20:59:18.429Z,14.50
2019-05-22T21:01:49.234Z,14.50
2019-05-22T21:04:20.417Z,14.50
2019-05-22T21:06:55.099Z,14.50
2019-05-22T21:09:24.893Z,14.50
2019-05-22T21:11:54.573Z,14.50
2019-05-22T21:14:24.114Z,14.50
2019-05-22T21:16:54.137Z,14.50
2019-05-22T21:19:23.782Z,14.50
2019-05-22T21:21:56.002Z,14.50
2019-05-22T21:24:25.095Z,14.50
2019-05-22T21:26:54.197Z,14.50
2019-05-22T21:29:24.520Z,14.50
2019-05-22T21:31:53.690Z,14.40
2019-05-22T21:34:23.504Z,14.40
2019-05-22T21:36:53.621Z,14.30
2019-05-22T21:39:23.492Z,14.30
2019-05-22T21:41:53.479Z,14.30
2019-05-22T21:44:22.587Z,14.30
2019-05-22T21:46:53.006Z,14.20
2019-05-22T21:49:24.168Z,14.20
2019-05-22T21:51:54.199Z,14.20
2019-05-22T21:54:23.260Z,14.10
2019-05-22T21:56:52.856Z,14.10
2019-05-22T21:59:22.042Z,14.10
2019-05-22T22:01:52.905Z,14.00
2019-05-22T22:04:24.816Z,14.00
2019-05-22T22:06:55.190Z,14.00
2019-05-22T22:09:25.930Z,13.90
2019-05-22T22:11:57.204Z,13.90
2019-05-22T22:14:26.672Z,13.90
2019-05-22T22:16:56.451Z,13.80
2019-05-22T22:19:26.145Z,13.80
2019-05-22T22:21:56.134Z,13.80
2019-05-22T22:24:26.409Z,13.80
2019-05-22T22:26:56.719Z,13.80
2019-05-22T22:29:26.042Z,13.80
2019-05-22T22:31:58.203Z,13.80
2019-05-22T22:34:33.192Z,13.70
2019-05-22T22:37:03.879Z,13.70
2019-05-22T22:39:34.668Z,13.70
2019-05-22T22:42:04.401Z,13.70
2019-05-22T22:44:34.828Z,13.70
2019-05-22T22:47:07.055Z,13.70
2019-05-22T22:49:37.888Z,13.70
2019-05-22T22:52:08.883Z,13.70
2019-05-22T22:54:37.989Z,13.70
2019-05-22T22:57:09.269Z,13.70
2019-05-22T22:59:38.540Z,13.70
2019-05-22T23:02:11.617Z,13.70
2019-05-22T23:04:42.265Z,13.70
2019-05-22T23:07:11.849Z,13.70
2019-05-22T23:09:42.706Z,13.80
2019-05-22T23:12:12.843Z,13.80
2019-05-22T23:14:45.746Z,13.80
2019-05-22T23:17:15.106Z,13.80
2019-05-22T23:19:43.153Z,13.80
2019-05-22T23:22:12.711Z,13.80
2019-05-22T23:24:43.425Z,13.70
2019-05-22T23:27:13.589Z,13.70
2019-05-22T23:29:42.842Z,13.70
2019-05-22T23:32:14.040Z,13.70
2019-05-22T23:34:45.133Z,13.70
2019-05-22T23:37:14.943Z,13.70
2019-05-22T23:39:46.222Z,13.70
2019-05-22T23:42:18.965Z,13.60
2019-05-22T23:44:49.428Z,13.60
2019-05-22T23:47:19.095Z,13.60
2019-05-22T23:49:49.551Z,13.60
2019-05-22T23:52:18.710Z,13.60
2019-05-22T23:54:48.939Z,13.60
2019-05-22T23:57:18.444Z,13.60
2019-05-22T23:59:49.913Z,13.60
